Time;durP1;ratioP1;P1;durP2;ratioP2;P2;SDS_P1;SDS_P2;PMS_P1;PMS_P2;Temp;Humidity;BMP_temperature;BMP_pressure;BME280_temperature;BME280_humidity;BME280_pressure;Samples;Min_cycle;Max_cycle;Signal;HPM_P1;HPM_P2
2022/03/21 00:00:39;;;;;;;30.90;18.55;;;;;;;7.92;57.17;103257.13;4995867;28;102023;-50
2022/03/21 00:03:10;;;;;;;27.08;17.83;;;;;;;7.92;57.43;103265.25;4991676;28;104120;-50
2022/03/21 00:05:37;;;;;;;27.77;17.75;;;;;;;7.92;56.75;103261.72;4994051;28;102231;-50
2022/03/21 00:08:11;;;;;;;26.10;18.08;;;;;;;7.91;56.37;103255.44;4993124;28;101847;-50
2022/03/21 00:10:38;;;;;;;27.70;17.85;;;;;;;7.91;56.84;103258.16;4994712;28;102524;-50
2022/03/21 00:13:07;;;;;;;29.38;17.90;;;;;;;7.91;57.04;103255.44;4992423;28;104136;-50
2022/03/21 00:15:35;;;;;;;26.65;17.75;;;;;;;7.91;56.70;103255.44;4991675;28;102301;-50
2022/03/21 00:18:08;;;;;;;28.45;17.77;;;;;;;7.90;57.65;103248.34;4993261;28;101910;-50
2022/03/21 00:20:36;;;;;;;18.80;12.75;;;;;;;7.91;57.22;103250.03;4995118;28;102049;-50
2022/03/21 00:23:03;;;;;;;28.73;16.83;;;;;;;7.91;57.82;103250.03;4994007;28;103913;-50
2022/03/21 00:25:29;;;;;;;23.60;15.90;;;;;;;7.89;56.90;103246.66;4989090;28;102502;-50
2022/03/21 00:27:58;;;;;;;;;;;;;;;7.90;57.73;103242.94;4973742;28;102279;-50
2022/03/21 00:30:25;;;;;;;26.85;16.25;;;;;;;7.90;56.88;103237.50;4986435;28;102960;-50
2022/03/21 00:32:52;;;;;;;25.40;14.95;;;;;;;7.90;57.20;103242.94;4992728;28;104048;-50
2022/03/21 00:35:23;;;;;;;22.92;15.55;;;;;;;7.90;56.68;103237.50;4991484;28;101971;-50
2022/03/21 00:37:50;;;;;;;24.33;16.00;;;;;;;7.91;57.19;103241.06;4979643;28;101944;-50
2022/03/21 00:40:18;;;;;;;21.40;15.68;;;;;;;7.91;57.41;103244.59;4993568;28;102137;-50
2022/03/21 00:42:46;;;;;;;22.13;16.13;;;;;;;7.90;57.47;103231.25;4972681;28;104004;-50
2022/03/21 00:45:15;;;;;;;23.88;15.48;;;;;;;7.91;56.95;103238.34;4987826;28;102442;-50
2022/03/21 00:47:42;;;;;;;23.40;15.73;;;;;;;7.91;57.23;103238.34;4982951;28;102832;-50
2022/03/21 00:50:11;;;;;;;23.10;15.25;;;;;;;7.90;56.62;103234.78;4994505;28;102136;-50
2022/03/21 00:52:42;;;;;;;21.63;14.75;;;;;;;7.90;57.25;103226.66;4982387;28;104195;-50
2022/03/21 00:55:09;;;;;;;23.10;15.48;;;;;;;7.91;56.89;103227.50;4989185;28;102145;-50
2022/03/21 00:57:37;;;;;;;21.83;15.48;;;;;;;7.90;57.31;103226.66;4988403;28;102284;-50
2022/03/21 01:00:06;;;;;;;21.50;15.15;;;;;;;7.90;57.32;103221.25;4993470;28;102197;-51
2022/03/21 01:02:35;;;;;;;24.83;16.20;;;;;;;7.90;56.63;103221.25;4989572;28;104272;-49
2022/03/21 01:05:03;;;;;;;24.27;15.02;;;;;;;7.90;57.60;103218.53;4973901;28;101892;-50
2022/03/21 01:07:31;;;;;;;18.67;11.98;;;;;;;7.90;57.18;103221.25;4986081;28;102323;-49
2022/03/21 01:10:00;;;;;;;27.52;16.15;;;;;;;7.90;57.15;103221.25;4981642;28;102183;-50
2022/03/21 01:12:27;;;;;;;22.25;14.90;;;;;;;7.90;56.97;103214.97;4972691;28;103819;-50
2022/03/21 01:14:54;;;;;;;23.10;15.52;;;;;;;7.90;57.37;103218.53;4973083;28;101936;-50
2022/03/21 01:17:21;;;;;;;22.90;15.48;;;;;;;7.90;56.90;103218.53;4985054;28;102381;-50
2022/03/21 01:19:48;;;;;;;23.40;15.02;;;;;;;7.90;57.65;103221.25;4992315;28;102087;-50
2022/03/21 01:22:15;;;;;;;21.30;14.32;;;;;;;7.91;56.44;103227.50;4979446;28;103620;-49
2022/03/21 01:24:42;;;;;;;20.33;14.15;;;;;;;7.89;57.23;103224.97;4972542;28;102213;-49
2022/03/21 01:27:10;;;;;;;21.10;14.70;;;;;;;7.89;57.32;103219.53;4990344;28;102463;-50
2022/03/21 01:29:37;;;;;;;21.98;14.50;;;;;;;7.90;56.98;103217.69;4993325;28;102531;-49
2022/03/21 01:32:04;;;;;;;23.95;14.65;;;;;;;7.90;57.03;103215.81;4992250;28;103705;-50
2022/03/21 01:34:32;;;;;;;19.73;14.35;;;;;;;7.90;56.83;103215.81;4991911;28;102246;-49
2022/03/21 01:36:58;;;;;;;19.55;13.93;;;;;;;7.91;57.04;103222.91;4991943;28;102391;-50
2022/03/21 01:39:25;;;;;;;20.38;13.40;;;;;;;7.89;57.63;103219.53;4991141;28;102394;-51
2022/03/21 01:41:52;;;;;;;20.83;13.77;;;;;;;7.89;57.57;103211.41;4971274;28;104129;-50
2022/03/21 01:44:20;;;;;;;20.42;13.90;;;;;;;7.90;57.43;103213.09;4994055;28;102126;-50
2022/03/21 01:46:48;;;;;;;20.80;13.55;;;;;;;7.89;56.54;103214.13;4991298;28;102169;-50
2022/03/21 01:49:15;;;;;;;18.55;13.38;;;;;;;7.89;57.10;103214.13;4992603;28;103031;-50
2022/03/21 01:51:42;;;;;;;20.05;14.25;;;;;;;7.89;56.88;103208.69;4991164;28;103863;-50
2022/03/21 01:56:55;;;;;;;21.00;13.98;;;;;;;7.90;57.00;103214.97;4975087;28;101969;-50
2022/03/21 01:59:22;;;;;;;20.45;14.55;;;;;;;7.89;57.48;103211.41;4988272;28;102156;-50
2022/03/21 02:01:50;;;;;;;20.48;13.23;;;;;;;7.89;57.10;103216.81;4985036;28;104050;-50
2022/03/21 02:04:17;;;;;;;18.80;12.93;;;;;;;7.88;57.34;103212.44;4990447;28;102487;-50
2022/03/21 02:07:05;;;;;;;18.42;12.52;;;;;;;7.89;57.45;103202.44;5001207;28;102279;-50
2022/03/21 02:09:31;;;;;;;21.07;13.63;;;;;;;7.88;57.42;103207.03;4989221;28;102144;-49
2022/03/21 02:11:58;;;;;;;20.92;13.65;;;;;;;7.88;56.96;103206.19;4989058;28;103424;-50
2022/03/21 02:14:26;;;;;;;19.70;13.48;;;;;;;7.89;57.19;103207.84;4991736;28;102461;-50
2022/03/21 02:16:53;;;;;;;19.10;13.20;;;;;;;7.89;57.33;103202.44;4990223;28;102142;-51
2022/03/21 02:19:28;;;;;;;18.63;12.57;;;;;;;7.89;56.66;103216.00;4992519;28;102519;-50
2022/03/21 02:22:13;;;;;;;18.17;13.45;;;;;;;7.88;56.88;103208.91;4990679;28;103984;-50
2022/03/21 02:24:49;;;;;;;17.20;13.13;;;;;;;7.88;57.38;103217.88;4991319;28;102573;-50
2022/03/21 02:27:18;;;;;;;17.45;12.30;;;;;;;7.88;57.32;103207.03;4990792;28;102429;-50
2022/03/21 02:29:48;;;;;;;17.40;13.13;;;;;;;7.88;57.02;103212.44;4989502;28;102381;-50
2022/03/21 02:32:15;;;;;;;16.73;12.55;;;;;;;7.88;56.88;103211.59;4978030;28;103964;-50
2022/03/21 02:34:45;;;;;;;20.33;13.77;;;;;;;7.87;57.80;103205.34;4975996;28;102459;-50
2022/03/21 02:37:16;;;;;;;19.23;12.85;;;;;;;7.86;56.97;103192.84;4972055;28;102519;-50
2022/03/21 02:39:44;;;;;;;17.50;12.38;;;;;;;7.86;56.95;103209.09;4971835;28;101990;-50
2022/03/21 02:42:11;;;;;;;19.10;13.10;;;;;;;7.87;56.99;103209.94;4970537;28;103873;-50
2022/03/21 02:44:40;;;;;;;19.33;12.77;;;;;;;7.87;57.30;103201.81;4971540;28;102276;-50
2022/03/21 02:47:08;;;;;;;16.10;12.40;;;;;;;7.87;57.68;103204.50;4971351;28;102526;-50
2022/03/21 02:49:34;;;;;;;17.05;11.95;;;;;;;7.85;57.67;103201.97;4985623;28;102357;-49
2022/03/21 02:52:06;;;;;;;17.75;12.65;;;;;;;7.85;57.31;103199.25;4990794;28;104036;-50
2022/03/21 02:54:34;;;;;;;18.17;12.02;;;;;;;7.85;57.04;103201.97;4978297;28;102143;-50
2022/03/21 02:57:02;;;;;;;16.90;12.50;;;;;;;7.85;56.44;103201.97;4990212;28;102106;-50
2022/03/21 02:59:29;;;;;;;18.33;12.70;;;;;;;7.85;56.47;103196.56;4987896;28;103503;-50
2022/03/21 03:01:56;;;;;;;16.60;11.57;;;;;;;7.85;57.21;103196.56;4990239;28;103856;-50
2022/03/21 03:04:24;;;;;;;14.32;11.35;;;;;;;7.86;56.90;103197.38;4991072;28;101910;-49
2022/03/21 03:06:51;;;;;;;16.02;11.70;;;;;;;7.84;57.17;103192.19;4986986;28;102071;-50
2022/03/21 03:09:17;;;;;;;16.58;11.70;;;;;;;7.84;56.78;103194.88;4988536;28;102284;-50
2022/03/21 03:11:44;;;;;;;15.13;11.38;;;;;;;7.84;57.18;103197.59;4976205;28;104049;-49
2022/03/21 03:14:11;;;;;;;19.52;11.93;;;;;;;7.84;57.22;103205.72;4991196;28;102384;-50
2022/03/21 03:16:38;;;;;;;15.95;11.15;;;;;;;7.85;57.22;103196.56;4985406;28;101999;-50
2022/03/21 03:19:06;;;;;;;16.05;11.32;;;;;;;7.84;57.72;103203.03;4971432;28;102805;-50
2022/03/21 03:21:36;;;;;;;17.30;11.80;;;;;;;7.84;57.13;103205.72;4979087;28;103946;-50
2022/03/21 03:24:05;;;;;;;17.02;11.85;;;;;;;7.84;56.40;103205.72;4983953;28;101972;-50
2022/03/21 03:26:32;;;;;;;;;;;;;;;7.83;56.51;103206.78;4989795;28;102565;-50
2022/03/21 03:28:58;;;;;;;15.55;11.25;;;;;;;7.83;56.78;103204.06;4972413;28;102831;-50
2022/03/21 03:31:25;;;;;;;18.30;12.00;;;;;;;7.83;56.83;103201.34;4970315;28;103551;-50
2022/03/21 03:33:52;;;;;;;16.77;12.05;;;;;;;7.83;56.90;103197.81;4970267;28;102009;-50
2022/03/21 03:36:20;;;;;;;19.58;11.85;;;;;;;7.83;57.47;103195.94;4988447;28;102088;-50
2022/03/21 03:38:51;;;;;;;14.68;10.90;;;;;;;7.82;56.78;103199.66;4989990;28;102588;-50
2022/03/21 03:41:19;;;;;;;16.38;11.57;;;;;;;7.82;56.81;103202.34;4989897;28;103939;-50
2022/03/21 03:43:47;;;;;;;15.20;10.65;;;;;;;7.83;56.87;103193.22;4993555;28;102620;-49
2022/03/21 03:46:16;;;;;;;15.45;11.18;;;;;;;7.82;57.17;103186.09;4984107;28;102412;-50
2022/03/21 03:48:43;;;;;;;17.17;11.13;;;;;;;7.82;57.53;103188.81;4992707;28;102244;-50
2022/03/21 03:51:10;;;;;;;16.35;11.80;;;;;;;7.82;57.71;103191.50;4987395;28;103959;-50
2022/03/21 03:53:39;;;;;;;18.65;11.60;;;;;;;7.81;56.73;103184.41;4992127;28;101980;-50
2022/03/21 03:56:06;;;;;;;15.52;11.43;;;;;;;7.82;57.21;103191.50;4988279;28;102511;-50
2022/03/21 03:58:33;;;;;;;16.30;11.55;;;;;;;7.82;56.78;103186.09;4994809;28;102036;-50
2022/03/21 04:01:00;;;;;;;15.57;11.98;;;;;;;7.81;56.34;103184.41;4990779;28;103921;-50
2022/03/21 04:03:45;;;;;;;13.82;11.25;;;;;;;7.82;57.63;103185.25;4991436;28;102733;-50
2022/03/21 04:06:12;;;;;;;15.90;11.10;;;;;;;7.81;56.86;103179.00;4985884;28;102248;-50
2022/03/21 04:08:41;;;;;;;14.75;11.65;;;;;;;7.81;57.24;103172.75;4990061;28;102550;-50
2022/03/21 04:11:07;;;;;;;15.10;10.77;;;;;;;7.81;57.65;103178.16;4989646;28;103900;-50
2022/03/21 04:13:34;;;;;;;16.13;11.38;;;;;;;7.81;56.92;103172.75;4991520;28;102424;-50
2022/03/21 04:16:01;;;;;;;15.23;11.05;;;;;;;7.81;56.75;103179.00;4991330;28;102850;-50
2022/03/21 04:18:28;;;;;;;17.13;11.15;;;;;;;7.81;57.11;103181.72;4988480;28;103026;-50
2022/03/21 04:20:54;;;;;;;15.18;10.82;;;;;;;7.81;57.32;103184.41;4988713;28;103833;-50
2022/03/21 04:23:21;;;;;;;15.50;11.30;;;;;;;7.81;56.95;103178.16;4991524;28;102400;-50
2022/03/21 04:25:50;;;;;;;18.52;11.45;;;;;;;7.81;57.35;103184.41;4989874;28;102710;-50
2022/03/21 04:28:17;;;;;;;13.82;10.48;;;;;;;7.81;57.24;103181.72;4993287;28;102167;-51
2022/03/21 04:30:44;;;;;;;17.67;11.27;;;;;;;7.81;56.90;103173.56;4992593;28;104033;-50
2022/03/21 04:33:14;;;;;;;16.08;11.27;;;;;;;7.81;56.64;103181.72;4992950;28;102199;-50
2022/03/21 04:35:44;;;;;;;16.90;11.85;;;;;;;7.81;57.18;103181.72;5003414;28;102465;-50
2022/03/21 04:38:14;;;;;;;16.15;11.73;;;;;;;7.82;57.35;103186.09;4978939;28;102517;-50
2022/03/21 04:40:42;;;;;;;17.77;12.38;;;;;;;7.82;57.06;103190.69;4992288;28;104042;-50
2022/03/21 04:43:11;;;;;;;16.55;11.80;;;;;;;7.81;57.07;103181.72;4992655;28;102272;-50
2022/03/21 04:45:38;;;;;;;16.48;11.90;;;;;;;7.83;56.84;103187.78;4989048;28;102212;-49
2022/03/21 04:48:04;;;;;;;16.83;11.77;;;;;;;7.83;57.81;103182.38;4991043;28;102375;-50
2022/03/21 04:50:32;;;;;;;15.48;11.43;;;;;;;7.83;57.45;103187.78;4982096;28;103786;-50
2022/03/21 04:52:58;;;;;;;15.55;10.85;;;;;;;7.84;57.95;103189.47;4994194;28;102055;-50
2022/03/21 04:55:24;;;;;;;16.05;11.30;;;;;;;7.87;58.08;103177.41;4987367;28;101824;-50
2022/03/21 04:57:51;;;;;;;15.27;11.15;;;;;;;7.88;57.51;103179.91;4976102;28;102220;-50
2022/03/21 05:00:20;;;;;;;14.50;10.93;;;;;;;7.88;58.07;103168.22;4984106;28;104014;-50
2022/03/21 05:02:46;;;;;;;17.90;11.73;;;;;;;7.89;58.53;103173.44;4989123;28;102170;-50
2022/03/21 05:05:13;;;;;;;17.85;11.63;;;;;;;7.91;57.30;103174.09;4975277;28;102442;-50
2022/03/21 05:07:40;;;;;;;15.00;11.38;;;;;;;7.92;57.82;103183.91;4976581;28;102078;-50
2022/03/21 05:10:08;;;;;;;16.00;11.23;;;;;;;7.92;58.42;103180.34;4972669;28;103904;-50
2022/03/21 05:12:36;;;;;;;16.30;11.35;;;;;;;7.92;57.26;103192.03;4984782;28;102058;-50
2022/03/21 05:15:05;;;;;;;17.35;11.75;;;;;;;7.93;57.92;103193.75;4991771;28;102646;-50
2022/03/21 05:17:34;;;;;;;16.27;11.75;;;;;;;7.94;58.10;103183.72;4992591;28;102479;-50
2022/03/21 05:20:01;;;;;;;17.23;11.32;;;;;;;7.94;57.91;103195.41;4992359;28;104057;-50
2022/03/21 05:22:28;;;;;;;18.38;11.43;;;;;;;7.95;57.01;103178.09;4992042;28;102128;-50
2022/03/21 05:35:58;;;;;;;14.95;10.93;;;;;;;8.00;57.25;103171.25;4994045;28;102249;-50
2022/03/21 05:38:26;;;;;;;17.45;11.77;;;;;;;8.01;56.94;103172.94;4974881;28;102314;-50
2022/03/21 05:40:56;;;;;;;17.45;12.05;;;;;;;8.00;57.04;103176.69;4988354;28;103953;-50
2022/03/21 05:43:24;;;;;;;15.95;11.32;;;;;;;8.01;56.84;103183.81;4993791;28;102098;-50
2022/03/21 05:45:52;;;;;;;18.00;11.32;;;;;;;8.00;56.93;103188.34;4981194;28;102674;-50
2022/03/21 05:51:05;;;;;;;13.88;10.65;;;;;;;8.01;56.86;103179.22;4989069;28;103520;-50
2022/03/21 05:53:32;;;;;;;14.23;11.48;;;;;;;8.01;57.41;103173.78;4988481;28;102185;-50
2022/03/21 05:56:00;;;;;;;14.68;11.07;;;;;;;8.02;57.78;103174.63;4991635;28;101931;-50
2022/03/21 05:58:26;;;;;;;15.32;11.30;;;;;;;8.01;57.41;103172.94;4993178;28;102111;-50
2022/03/21 06:00:53;;;;;;;19.52;10.70;;;;;;;8.01;57.29;103168.38;4991709;28;103944;-50
2022/03/21 06:03:22;;;;;;;14.80;11.32;;;;;;;8.02;57.63;103174.63;4985663;28;103456;-49
2022/03/21 06:05:49;;;;;;;16.08;11.02;;;;;;;8.03;56.87;103173.59;4985920;28;102380;-49
2022/03/21 06:08:15;;;;;;;15.23;10.68;;;;;;;8.02;56.75;103174.63;4986203;28;102763;-50
2022/03/21 06:11:05;;;;;;;16.63;11.90;;;;;;;8.02;57.83;103171.91;4984706;28;104026;-50
2022/03/21 06:13:32;;;;;;;16.75;10.95;;;;;;;8.02;57.20;103174.63;4985488;28;102094;-50
2022/03/21 06:16:03;;;;;;;15.88;11.13;;;;;;;8.01;56.90;103171.06;4984535;28;102363;-50
2022/03/21 06:18:32;;;;;;;16.35;11.40;;;;;;;8.01;56.89;103170.25;4972365;28;102703;-50
2022/03/21 06:20:58;;;;;;;16.35;11.00;;;;;;;8.02;56.98;103169.19;4971105;28;103966;-50
2022/03/21 06:23:25;;;;;;;18.55;12.50;;;;;;;8.02;56.85;103163.78;4972064;28;101995;-50
2022/03/21 06:25:56;;;;;;;16.52;12.10;;;;;;;8.01;56.69;103162.09;4971746;28;102383;-50
2022/03/21 06:28:24;;;;;;;18.58;11.52;;;;;;;8.02;56.87;103167.31;4972509;28;102026;-49
2022/03/21 06:30:53;;;;;;;16.80;11.30;;;;;;;8.01;57.31;103162.94;4975007;28;103271;-50
2022/03/21 06:33:21;;;;;;;16.38;11.18;;;;;;;8.02;57.25;103163.78;4992822;28;101876;-50
2022/03/21 06:35:50;;;;;;;16.65;10.98;;;;;;;8.01;57.35;103162.94;5002736;28;102133;-50
2022/03/21 06:38:16;;;;;;;18.23;11.83;;;;;;;8.03;57.32;103154.59;4989488;28;103763;-50
2022/03/21 06:40:43;;;;;;;18.10;11.70;;;;;;;8.01;57.07;103152.09;4982553;28;104060;-50
2022/03/21 06:43:10;;;;;;;16.10;11.43;;;;;;;8.01;56.95;103141.25;4992505;28;102273;-50
2022/03/21 06:45:37;;;;;;;16.55;10.90;;;;;;;8.02;57.69;103136.66;4989111;28;102399;-50
2022/03/21 06:48:04;;;;;;;18.70;11.60;;;;;;;8.02;56.96;103134.78;4976548;28;102626;-50
2022/03/21 06:50:32;;;;;;;17.15;11.45;;;;;;;8.02;57.08;103131.22;4987932;28;103990;-50
2022/03/21 06:53:00;;;;;;;14.55;10.38;;;;;;;8.01;56.76;103124.97;4972857;28;102325;-50
2022/03/21 06:55:27;;;;;;;15.98;11.52;;;;;;;8.02;56.71;103133.94;4978906;28;102365;-50
2022/03/21 06:57:55;;;;;;;16.52;11.48;;;;;;;8.02;56.96;103125.81;4983159;28;102538;-50
2022/03/21 07:00:21;;;;;;;17.13;10.77;;;;;;;8.03;57.13;103141.03;4981940;28;103546;-50
2022/03/21 07:02:48;;;;;;;15.32;10.57;;;;;;;8.03;57.42;103127.47;4990290;28;102377;-50
2022/03/21 07:05:14;;;;;;;15.20;11.02;;;;;;;8.03;56.95;103130.19;4972084;28;101843;-50
2022/03/21 07:07:43;;;;;;;14.57;10.93;;;;;;;8.03;57.37;103132.91;4991085;28;102184;-50
2022/03/21 07:10:11;;;;;;;15.05;10.65;;;;;;;8.02;57.11;103132.06;4989257;28;103852;-50
2022/03/21 07:12:39;;;;;;;14.50;10.90;;;;;;;8.04;56.71;103121.00;4990590;28;101975;-50
2022/03/21 07:15:07;;;;;;;15.60;9.93;;;;;;;8.03;56.75;103112.03;4989848;28;101828;-49
2022/03/21 07:17:34;;;;;;;14.95;10.23;;;;;;;8.05;57.09;103114.56;4991784;28;102675;-50
2022/03/21 07:20:01;;;;;;;15.60;10.10;;;;;;;8.05;57.09;103120.84;4988941;28;104318;-50
2022/03/21 07:22:29;;;;;;;14.70;10.63;;;;;;;8.05;57.14;103114.56;4989902;28;102161;-50
2022/03/21 07:24:56;;;;;;;15.65;9.80;;;;;;;8.05;57.45;103104.56;4986332;28;104023;-50
2022/03/21 07:27:24;;;;;;;16.25;10.43;;;;;;;8.06;57.45;103116.25;4993294;28;103818;-50
2022/03/21 07:29:51;;;;;;;15.10;9.68;;;;;;;8.06;56.75;103116.25;4991247;28;104069;-50
2022/03/21 07:32:18;;;;;;;14.90;9.95;;;;;;;8.07;57.17;103128.75;4989955;28;102150;-50
2022/03/21 07:34:44;;;;;;;13.10;9.50;;;;;;;8.08;56.67;103125.03;4988820;28;102452;-50
2022/03/21 07:37:11;;;;;;;15.95;9.82;;;;;;;8.09;56.62;103129.41;4992880;28;102536;-50
2022/03/21 07:39:39;;;;;;;16.00;9.80;;;;;;;8.09;56.17;103126.72;4984586;28;103896;-50
2022/03/21 07:42:07;;;;;;;13.90;9.45;;;;;;;8.10;56.80;103122.94;4990403;28;102516;-50
2022/03/21 07:47:22;;;;;;;13.02;9.02;;;;;;;8.10;56.14;103115.66;4993638;28;102121;-50
2022/03/21 07:49:50;;;;;;;13.30;9.18;;;;;;;8.11;56.42;103109.22;5000352;28;104116;-50
2022/03/21 07:52:19;;;;;;;12.57;9.13;;;;;;;8.13;56.69;103109.00;4991451;28;102109;-50
2022/03/21 07:54:46;;;;;;;12.30;8.68;;;;;;;8.12;56.54;103099.19;4992275;28;102073;-50
2022/03/21 07:57:12;;;;;;;13.10;9.10;;;;;;;8.13;56.92;103100.88;4992146;28;102307;-49
2022/03/21 07:59:40;;;;;;;14.48;8.55;;;;;;;8.13;56.39;103100.88;4990325;28;103095;-50
2022/03/21 08:02:07;;;;;;;12.52;8.32;;;;;;;8.14;56.74;103097.94;4985988;28;102093;-50
2022/03/21 08:04:34;;;;;;;12.23;8.48;;;;;;;8.15;56.88;103101.50;4975233;28;102524;-50
2022/03/21 08:07:01;;;;;;;15.05;9.63;;;;;;;8.15;56.60;103106.91;4974610;28;102241;-50
2022/03/21 08:09:28;;;;;;;12.43;8.65;;;;;;;8.17;56.34;103099.44;4989713;28;104634;-50
2022/03/21 08:11:55;;;;;;;12.13;8.07;;;;;;;8.17;56.68;103096.72;4993307;28;102229;-50
2022/03/21 08:14:21;;;;;;;12.38;8.48;;;;;;;8.15;56.69;103082.50;4991880;28;102312;-49
2022/03/21 08:16:50;;;;;;;11.35;8.30;;;;;;;8.16;56.15;103086.91;5006513;28;102205;-49
2022/03/21 08:19:18;;;;;;;10.50;6.30;;;;;;;8.15;56.81;103088.78;4996264;28;103845;-50
2022/03/21 08:21:45;;;;;;;10.30;7.55;;;;;;;8.16;56.66;103086.91;4993053;28;102463;-50
2022/03/21 08:24:12;;;;;;;11.73;8.07;;;;;;;8.17;56.51;103091.28;4996610;28;102219;-50
2022/03/21 08:26:43;;;;;;;11.27;7.35;;;;;;;8.16;56.19;103076.91;4995462;28;103356;-50
2022/03/21 08:29:12;;;;;;;14.02;8.98;;;;;;;8.17;56.50;103077.72;4989709;28;104062;-50
2022/03/21 08:31:40;;;;;;;;;;;;;;;8.17;56.06;103072.31;4990523;28;102475;-49
2022/03/21 08:34:09;;;;;;;12.07;8.27;;;;;;;8.16;55.67;103068.75;5003501;28;102316;-50
2022/03/21 08:36:38;;;;;;;12.32;8.80;;;;;;;8.18;56.45;103076.69;5007656;28;102304;-49
2022/03/21 08:39:05;;;;;;;12.80;8.27;;;;;;;8.19;56.21;103072.97;4987929;28;104040;-50
2022/03/21 08:41:32;;;;;;;11.73;8.25;;;;;;;8.19;55.48;103078.38;4987243;28;102467;-50
2022/03/21 08:44:00;;;;;;;12.27;8.40;;;;;;;8.19;55.43;103064.81;4973532;28;102529;-49
2022/03/21 08:46:27;;;;;;;11.43;8.18;;;;;;;8.20;55.46;103061.06;4985594;28;102406;-50
2022/03/21 08:51:43;;;;;;;12.75;8.25;;;;;;;8.19;56.10;103057.53;4989689;28;101771;-50
2022/03/21 08:54:10;;;;;;;11.60;8.20;;;;;;;8.21;56.66;103054.59;4992383;28;102086;-50
2022/03/21 08:56:37;;;;;;;13.85;8.18;;;;;;;8.21;56.17;103056.47;4975512;28;102139;-50
2022/03/21 08:59:03;;;;;;;11.98;8.02;;;;;;;8.21;56.01;103046.47;4978039;28;104062;-50
2022/03/21 09:01:31;;;;;;;11.60;8.55;;;;;;;8.24;55.98;103047.94;4973197;28;102237;-50
2022/03/21 09:03:59;;;;;;;12.95;8.35;;;;;;;8.23;55.66;103041.69;4979471;28;102359;-50
2022/03/21 09:06:25;;;;;;;11.02;7.85;;;;;;;8.24;55.35;103034.38;4985326;28;102421;-50
2022/03/21 09:08:53;;;;;;;13.68;8.07;;;;;;;8.25;55.66;103034.16;4987318;28;104128;-50
2022/03/21 09:11:21;;;;;;;12.05;8.32;;;;;;;8.25;55.10;103027.91;5005934;28;102145;-49
2022/03/21 09:13:49;;;;;;;13.60;8.40;;;;;;;8.24;56.27;103021.66;4992451;28;101842;-50
2022/03/21 09:16:16;;;;;;;12.65;8.38;;;;;;;8.27;55.15;103023.13;4993046;28;102292;-50
2022/03/21 09:18:45;;;;;;;11.57;7.90;;;;;;;8.26;56.06;103014.16;4981894;28;103856;-50
2022/03/21 09:21:11;;;;;;;11.02;7.63;;;;;;;8.26;54.66;103014.16;4975478;28;102515;-50
2022/03/21 09:23:39;;;;;;;13.77;7.53;;;;;;;8.27;55.12;103015.84;5002721;28;102062;-50
2022/03/21 09:26:10;;;;;;;13.05;7.90;;;;;;;8.27;54.74;103004.16;4993162;28;102200;-50
2022/03/21 09:28:44;;;;;;;12.77;7.78;;;;;;;8.28;54.85;102995.78;4985916;28;104109;-50
2022/03/21 09:31:13;;;;;;;12.38;7.25;;;;;;;8.27;54.49;102994.13;4972358;28;101935;-50
2022/03/21 09:33:40;;;;;;;12.75;7.30;;;;;;;8.28;55.17;102990.38;4993725;28;102839;-49
2022/03/21 09:36:07;;;;;;;13.35;7.45;;;;;;;8.27;55.17;102987.88;4992677;28;102146;-50
2022/03/21 09:38:34;;;;;;;11.77;7.30;;;;;;;8.29;55.22;102992.03;4991054;28;103884;-50
2022/03/21 09:41:03;;;;;;;9.90;7.00;;;;;;;8.29;54.58;102983.91;4991639;28;102508;-50
2022/03/21 09:43:31;;;;;;;11.73;7.32;;;;;;;8.30;54.61;102979.34;4992021;28;102019;-50
2022/03/21 09:45:58;;;;;;;10.55;7.38;;;;;;;8.30;54.11;102969.31;4992394;28;102505;-50
2022/03/21 09:48:26;;;;;;;9.55;7.13;;;;;;;8.30;54.94;102965.78;4991370;28;103972;-50
2022/03/21 09:50:54;;;;;;;10.80;7.13;;;;;;;8.29;53.94;102964.91;4989356;28;102135;-50
2022/03/21 09:53:24;;;;;;;9.90;7.05;;;;;;;8.29;53.95;102964.91;4971976;28;102442;-50
2022/03/21 09:55:51;;;;;;;8.77;6.78;;;;;;;8.30;54.69;102955.75;4978706;28;102344;-49
2022/03/21 09:58:20;;;;;;;10.38;7.18;;;;;;;8.30;53.87;102955.75;4988842;28;103853;-50
2022/03/21 10:00:51;;;;;;;11.90;7.60;;;;;;;8.31;53.90;102949.28;4971229;28;102291;-50
2022/03/21 10:03:19;;;;;;;10.00;7.32;;;;;;;8.30;55.02;102950.31;4979884;28;101966;-50
2022/03/21 10:05:49;;;;;;;9.18;6.70;;;;;;;8.30;54.09;102939.47;4987892;28;102254;-50
2022/03/21 10:08:19;;;;;;;10.57;6.87;;;;;;;8.32;54.60;102941.97;4983052;28;103939;-50
2022/03/21 10:10:55;;;;;;;11.82;6.57;;;;;;;8.33;53.62;102940.91;4972293;28;101924;-50
2022/03/21 10:13:25;;;;;;;10.25;6.90;;;;;;;8.33;53.81;102939.06;4984304;28;102276;-50
2022/03/21 10:16:12;;;;;;;11.50;6.35;;;;;;;8.32;54.60;102944.69;4990012;28;102141;-50
2022/03/21 10:18:57;;;;;;;10.65;6.75;;;;;;;8.32;53.99;102937.38;4980792;28;103673;-50
2022/03/21 10:21:26;;;;;;;9.02;6.72;;;;;;;8.32;53.63;102942.81;5001768;28;102458;-50
2022/03/21 10:24:02;;;;;;;8.63;6.97;;;;;;;8.33;54.01;102930.94;4991044;28;102167;-50
2022/03/21 10:26:32;;;;;;;8.43;6.88;;;;;;;8.32;54.11;102934.66;4991852;28;101871;-50
2022/03/21 10:29:00;;;;;;;11.10;6.63;;;;;;;8.32;54.15;102921.09;4990543;28;103814;-50
2022/03/21 10:31:37;;;;;;;8.50;6.60;;;;;;;8.32;54.08;102929.25;4988335;28;101924;-50
2022/03/21 10:34:06;;;;;;;8.80;6.40;;;;;;;8.33;53.28;102924.66;4984724;28;102294;-50
2022/03/21 10:36:33;;;;;;;9.18;6.53;;;;;;;8.32;53.53;102921.09;4986925;28;102396;-50
2022/03/21 10:39:06;;;;;;;9.30;7.03;;;;;;;8.32;53.35;102910.25;4982761;28;104109;-50
2022/03/21 10:41:35;;;;;;;7.63;6.00;;;;;;;8.31;53.08;102897.72;4973579;28;102448;-50
2022/03/21 10:44:03;;;;;;;;;;;;;;;8.31;53.55;102900.44;4978640;28;102139;-50
2022/03/21 10:46:30;;;;;;;9.82;6.25;;;;;;;8.32;53.35;102887.72;4987841;28;102314;-50
2022/03/21 10:49:08;;;;;;;8.93;6.18;;;;;;;8.32;53.86;102883.13;4983315;28;103900;-49
2022/03/21 10:51:49;;;;;;;8.93;6.88;;;;;;;8.33;53.51;102881.25;4977396;28;102062;-50
2022/03/21 10:54:38;;;;;;;10.10;7.05;;;;;;;8.33;54.12;102881.25;4979037;28;102415;-50
2022/03/21 10:57:06;;;;;;;10.03;6.60;;;;;;;8.34;53.32;102891.91;4974019;28;102819;-50
2022/03/21 10:59:34;;;;;;;9.13;7.00;;;;;;;8.33;52.71;102879.38;4981413;28;104532;-50
2022/03/21 11:02:12;;;;;;;7.38;6.57;;;;;;;8.33;53.64;102887.53;4995150;28;103533;-50
2022/03/21 11:04:43;;;;;;;8.90;6.50;;;;;;;8.32;52.29;102876.88;4988865;28;102632;-50
2022/03/21 11:07:14;;;;;;;9.95;6.82;;;;;;;8.31;53.11;102876.03;4993699;28;102223;-50
2022/03/21 11:09:41;;;;;;;10.52;7.07;;;;;;;8.32;51.34;102883.13;4994804;28;103915;-50
2022/03/21 11:12:09;;;;;;;8.70;6.55;;;;;;;8.31;52.22;102865.19;4994907;28;101983;-50
2022/03/21 11:14:39;;;;;;;8.53;6.50;;;;;;;8.31;51.71;102854.31;4976061;28;102903;-50
2022/03/21 11:17:17;;;;;;;9.10;6.78;;;;;;;8.31;52.24;102848.91;4987369;28;102363;-50
2022/03/21 11:19:45;;;;;;;8.77;6.35;;;;;;;8.32;52.06;102856.00;4993702;28;104085;-50
2022/03/21 11:22:12;;;;;;;9.27;6.63;;;;;;;8.33;52.35;102848.69;4993585;28;103915;-50
2022/03/21 11:24:39;;;;;;;10.80;7.43;;;;;;;8.32;52.67;102853.28;4979407;28;102307;-50
2022/03/21 11:27:31;;;;;;;10.85;6.97;;;;;;;8.33;53.50;102838.69;4994050;28;102286;-49
2022/03/21 11:30:06;;;;;;;10.77;7.53;;;;;;;8.33;52.64;102844.13;4991790;28;103273;-50
2022/03/21 11:32:45;;;;;;;9.48;6.75;;;;;;;8.32;52.87;102828.84;4994403;28;102047;-49
2022/03/21 11:35:15;;;;;;;9.25;6.88;;;;;;;8.34;52.88;102832.22;4988345;28;102079;-50
2022/03/21 11:37:42;;;;;;;10.30;7.20;;;;;;;8.33;52.67;102819.69;4993344;28;102293;-50
2022/03/21 11:40:39;;;;;;;11.20;7.28;;;;;;;8.33;52.84;102818.84;4979824;28;103943;-49
2022/03/21 11:43:29;;;;;;;10.05;6.80;;;;;;;8.34;53.29;102820.53;4918897;28;102048;-50